Time;durP1;ratioP1;P1;durP2;ratioP2;P2;SDS_P1;SDS_P2;PMS_P1;PMS_P2;Temp;Humidity;BMP_temperature;BMP_pressure;BME280_temperature;BME280_humidity;BME280_pressure;Samples;Min_cycle;Max_cycle;Signal;HPM_P1;HPM_P2
2022/09/17 00:01:21;;;;;;;;;0.00;0.00;;;;;15.03;50.25;101287.56;5034480;28;45318;-54
2022/09/17 00:03:51;;;;;;;;;2.00;1.20;;;;;14.99;50.20;101289.09;5016852;28;45406;-54
2022/09/17 00:06:17;;;;;;;;;2.20;1.80;;;;;14.89;49.87;101284.09;5034359;28;45342;-52
2022/09/17 00:08:42;;;;;;;;;2.25;1.50;;;;;14.95;50.10;101302.53;5034130;28;45517;-54
2022/09/17 00:11:19;;;;;;;;;2.00;2.00;;;;;14.97;49.67;101300.38;5016361;28;45388;-54
2022/09/17 00:13:45;;;;;;;;;2.00;1.60;;;;;15.02;49.64;101305.22;5034408;28;45432;-55
2022/09/17 00:16:11;;;;;;;;;1.50;1.50;;;;;15.02;49.72;101297.78;5034649;28;45274;-54
2022/09/17 00:18:40;;;;;;;;;2.75;2.00;;;;;14.51;49.91;101219.59;5033957;28;45739;-53
2022/09/17 00:21:06;;;;;;;;;2.80;2.80;;;;;14.85;50.16;101299.44;5016149;28;45562;-53
2022/09/17 00:23:31;;;;;;;;;3.50;3.00;;;;;14.81;50.15;101288.00;5033855;28;45484;-57
2022/09/17 00:25:58;;;;;;;;;1.75;1.75;;;;;14.73;50.34;101291.03;5016480;28;45381;-54
2022/09/17 00:28:23;;;;;;;;;6.00;4.60;;;;;14.58;51.03;101264.56;5033635;28;45532;-54
2022/09/17 00:30:49;;;;;;;;;4.00;4.00;;;;;14.83;50.71;101298.81;5034079;28;45337;-54
2022/09/17 00:33:15;;;;;;;;;2.00;2.00;;;;;14.76;50.84;101301.63;5034035;28;45418;-50
2022/09/17 00:35:41;;;;;;;;;1.00;1.00;;;;;14.54;50.87;101276.28;5034376;28;45576;-53
2022/09/17 00:38:07;;;;;;;;;1.00;1.00;;;;;14.70;50.41;101299.75;5034052;28;46406;-54
2022/09/17 00:40:33;;;;;;;;;5.50;4.00;;;;;14.75;50.53;101306.34;5033865;28;45392;-54
2022/09/17 00:42:58;;;;;;;;;0.00;0.00;;;;;14.79;50.41;101314.16;5034062;28;45369;-50
2022/09/17 00:45:24;;;;;;;;;1.00;1.00;;;;;14.72;50.70;101303.97;5016190;28;45638;-52
2022/09/17 00:47:59;;;;;;;;;1.25;1.00;;;;;14.76;50.84;101313.56;5033605;28;47229;-53
2022/09/17 00:50:37;;;;;;;;;1.40;0.80;;;;;14.49;50.66;101269.56;5015793;28;45411;-53
2022/09/17 00:53:10;;;;;;;;;2.40;1.00;;;;;14.73;51.10;101293.78;5016258;28;45532;-53
2022/09/17 00:55:37;;;;;;;;;1.00;1.00;;;;;14.76;50.82;101296.97;5016331;28;45382;-52
2022/09/17 00:58:04;;;;;;;;;2.20;2.00;;;;;14.71;51.04;101298.66;5015807;28;46774;-51
2022/09/17 01:00:30;;;;;;;;;3.00;3.00;;;;;14.61;51.19;101288.97;4963036;28;45474;-53
2022/09/17 01:02:55;;;;;;;;;1.00;1.00;;;;;14.75;50.76;101309.09;4997382;28;45390;-53
2022/09/17 01:05:36;;;;;;;;;0.50;0.50;;;;;14.75;50.59;101300.81;5017486;28;45479;-54
2022/09/17 01:08:07;;;;;;;;;2.40;1.20;;;;;14.60;51.24;101283.69;4984787;28;45994;-53
2022/09/17 01:10:54;;;;;;;;;2.40;0.60;;;;;14.52;50.73;101275.69;5017078;28;45373;-52
2022/09/17 01:13:46;;;;;;;;;0.60;0.60;;;;;14.68;50.57;101305.47;4983436;28;45325;-53
2022/09/17 01:16:50;;;;;;;;;1.00;1.00;;;;;14.71;50.80;101305.06;4999792;28;45366;-52
2022/09/17 01:19:53;;;;;;;;;0.80;0.80;;;;;14.72;50.73;101309.50;4897520;29;46475;-53
2022/09/17 01:22:27;;;;;;;;;0.60;0.60;;;;;14.53;50.87;101283.75;4898927;28;45420;-53
2022/09/17 01:25:21;;;;;;;;;2.00;1.00;;;;;14.62;51.15;101309.19;4973026;28;45452;-53
2022/09/17 01:28:18;;;;;;;;;0.60;0.60;;;;;14.66;50.99;101315.94;4996172;28;45409;-52
2022/09/17 01:30:56;;;;;;;;;1.80;0.80;;;;;14.68;51.08;101318.47;4996701;28;45369;-53
2022/09/17 01:33:33;;;;;;;;;1.00;1.00;;;;;14.66;51.15;101315.09;5011921;28;45342;-51
2022/09/17 01:36:13;;;;;;;;;1.00;1.00;;;;;14.68;51.35;101321.25;4996861;28;45358;-54
2022/09/17 01:39:02;;;;;;;;;0.00;0.00;;;;;14.62;51.10;101318.28;5012389;28;45747;-53
2022/09/17 01:41:43;;;;;;;;;2.00;2.00;;;;;14.55;51.65;101322.16;5012332;28;45730;-54
2022/09/17 01:44:31;;;;;;;;;0.80;0.80;;;;;14.55;51.86;101325.78;4996834;28;45295;-54
2022/09/17 01:47:11;;;;;;;;;0.80;0.20;;;;;14.52;51.75;101329.03;5012107;28;45232;-53
2022/09/17 01:49:36;;;;;;;;;0.40;0.40;;;;;14.47;52.12;101337.13;5012295;28;45560;-54
2022/09/17 01:52:02;;;;;;;;;0.25;0.25;;;;;14.47;51.79;101326.06;4996739;28;45446;-54
2022/09/17 01:54:39;;;;;;;;;2.00;1.00;;;;;14.48;51.56;101330.53;4995372;28;45425;-52
2022/09/17 01:57:13;;;;;;;;;0.80;0.80;;;;;14.14;51.67;101283.81;4995143;28;45443;-51
2022/09/17 01:59:48;;;;;;;;;1.00;0.80;;;;;14.41;51.72;101321.44;4995514;28;45294;-52
2022/09/17 02:02:51;;;;;;;;;3.40;0.40;;;;;14.45;51.89;101329.06;4980534;28;46091;-57
2022/09/17 02:05:19;;;;;;;;;0.60;0.60;;;;;13.78;51.93;101230.13;4954630;28;45533;-54
2022/09/17 02:08:21;;;;;;;;;1.00;1.00;;;;;14.44;51.77;101341.19;5004371;28;45419;-54
2022/09/17 02:10:54;;;;;;;;;0.00;0.00;;;;;14.17;51.65;101302.69;4962759;28;45371;-51
2022/09/17 02:13:27;;;;;;;;;1.40;0.00;;;;;14.31;51.91;101330.22;5004646;28;46333;-54
2022/09/17 02:15:56;;;;;;;;;1.00;1.00;;;;;14.34;52.34;101329.75;5015051;28;45368;-52
2022/09/17 02:18:26;;;;;;;;;0.60;0.60;;;;;14.32;52.22;101340.19;5015042;28;45576;-53
2022/09/17 02:20:55;;;;;;;;;2.00;2.00;;;;;14.29;51.99;101337.88;5015046;28;45269;-52
2022/09/17 02:23:24;;;;;;;;;0.00;0.00;;;;;14.21;52.04;101334.31;5014624;28;45367;-55
2022/09/17 02:25:57;;;;;;;;;0.40;0.40;;;;;14.23;51.99;101337.72;5014849;28;45478;-51
2022/09/17 02:28:34;;;;;;;;;0.00;0.00;;;;;14.16;52.79;101331.38;5015188;28;45364;-52
2022/09/17 02:31:00;;;;;;;;;0.80;0.80;;;;;14.21;52.02;101331.53;5015228;28;45374;-54
2022/09/17 02:33:25;;;;;;;;;1.00;1.00;;;;;14.21;52.53;101334.31;5015851;28;46417;-52
2022/09/17 02:35:51;;;;;;;;;1.00;1.00;;;;;14.10;52.66;101315.72;5016001;28;45408;-52
2022/09/17 02:38:24;;;;;;;;;1.75;0.75;;;;;14.14;52.61;101330.72;5016216;28;45442;-52
2022/09/17 02:40:53;;;;;;;;;0.60;0.60;;;;;14.15;52.20;101328.84;5016389;28;45637;-53
2022/09/17 02:44:06;;;;;;;;;1.00;1.00;;;;;14.18;52.23;101318.19;4998427;28;46862;-53
2022/09/17 02:46:42;;;;;;;;;3.00;1.00;;;;;14.18;51.99;101326.47;5013793;28;45529;-51
2022/09/17 02:49:18;;;;;;;;;3.00;0.60;;;;;14.00;51.86;101307.91;5015079;28;45370;-52
2022/09/17 02:51:54;;;;;;;;;1.40;1.40;;;;;14.09;51.91;101316.78;5016103;28;45437;-55
2022/09/17 02:54:30;;;;;;;;;1.00;1.00;;;;;14.09;52.17;101322.28;5015737;28;46284;-54
2022/09/17 02:57:25;;;;;;;;;1.00;1.00;;;;;14.08;51.53;101324.19;4998214;28;45362;-53
2022/09/17 03:00:07;;;;;;;;;1.00;1.00;;;;;14.11;51.77;101322.91;5011611;28;45377;-50
2022/09/17 03:02:37;;;;;;;;;2.00;2.00;;;;;14.07;52.02;101322.50;5009657;28;45312;-56
2022/09/17 03:05:03;;;;;;;;;1.00;1.00;;;;;14.09;51.51;101327.81;4996186;28;47391;-51
2022/09/17 03:07:29;;;;;;;;;1.60;1.60;;;;;14.09;51.68;101325.06;5014240;28;45527;-53
2022/09/17 03:09:54;;;;;;;;;1.25;1.25;;;;;14.01;52.03;101322.53;5015423;28;45360;-52
2022/09/17 03:12:20;;;;;;;;;1.75;1.00;;;;;13.76;51.91;101309.53;5016022;28;45416;-53
2022/09/17 03:14:46;;;;;;;;;0.60;0.60;;;;;13.70;52.42;101300.19;5015475;28;46696;-52
2022/09/17 03:17:13;;;;;;;;;2.00;0.75;;;;;13.85;52.68;101324.75;5015927;28;45509;-54
2022/09/17 03:19:39;;;;;;;;;0.00;0.00;;;;;13.89;52.41;101325.16;5015199;28;45342;-54
2022/09/17 03:22:04;;;;;;;;;0.25;0.25;;;;;13.91;52.15;101328.53;5015539;28;45317;-51
2022/09/17 03:24:30;;;;;;;;;2.50;1.00;;;;;13.92;52.21;101324.69;5013569;28;47145;-49
2022/09/17 03:26:56;;;;;;;;;1.75;0.75;;;;;13.97;52.03;101322.13;5016203;28;45371;-50
2022/09/17 03:29:21;;;;;;;;;1.00;1.00;;;;;14.00;52.34;101326.38;5035052;28;45346;-51
2022/09/17 03:31:47;;;;;;;;;1.00;1.00;;;;;14.01;52.08;101328.91;5034883;28;45405;-52
2022/09/17 03:34:12;;;;;;;;;0.25;0.25;;;;;14.04;52.19;101333.16;5034671;28;45796;-53
2022/09/17 03:36:38;;;;;;;;;1.00;1.00;;;;;14.04;52.09;101331.22;5034856;28;45426;-53
2022/09/17 03:39:03;;;;;;;;;1.00;1.00;;;;;13.92;52.75;101330.22;5017065;28;45276;-51
2022/09/17 03:41:29;;;;;;;;;1.75;0.75;;;;;13.93;52.32;101332.75;5035005;28;45432;-54
2022/09/17 03:43:54;;;;;;;;;0.00;0.00;;;;;13.83;52.53;101330.47;5034159;28;46029;-52
2022/09/17 03:46:20;;;;;;;;;0.75;0.75;;;;;13.90;52.83;101337.88;5016916;28;45484;-51
2022/09/17 03:48:45;;;;;;;;;0.00;0.00;;;;;13.88;52.75;101338.09;5034893;28;45339;-49
2022/09/17 03:51:11;;;;;;;;;0.50;0.50;;;;;13.72;53.14;101333.09;5034848;28;45475;-53
2022/09/17 03:53:36;;;;;;;;;1.00;1.00;;;;;13.77;53.09;101341.56;5016727;28;46526;-51
2022/09/17 03:56:03;;;;;;;;;0.50;0.50;;;;;13.63;52.76;101319.53;5016542;28;45427;-50
2022/09/17 03:58:29;;;;;;;;;1.40;1.40;;;;;13.65;53.13;101325.69;5016990;28;45363;-51
2022/09/17 04:00:56;;;;;;;;;1.00;1.00;;;;;13.81;52.65;101356.59;5034610;28;45453;-51
2022/09/17 04:03:25;;;;;;;;;0.00;0.00;;;;;13.83;52.93;101348.97;5034493;28;46754;-52
2022/09/17 04:05:51;;;;;;;;;1.00;1.00;;;;;13.45;52.61;101286.28;5034329;28;45409;-49
2022/09/17 04:08:17;;;;;;;;;1.00;1.00;;;;;13.72;52.81;101355.16;5022472;28;45337;-51
2022/09/17 04:10:43;;;;;;;;;1.00;1.00;;;;;13.76;52.95;101348.16;5054556;28;45437;-50
2022/09/17 04:13:09;;;;;;;;;1.00;1.00;;;;;13.75;53.19;101351.94;5052639;28;46125;-53
2022/09/17 04:15:34;;;;;;;;;1.00;1.00;;;;;13.80;53.09;101358.53;5054463;28;45388;-52
2022/09/17 04:18:00;;;;;;;;;0.50;0.50;;;;;13.79;53.12;101361.50;5036351;28;45463;-52
2022/09/17 04:20:25;;;;;;;;;0.00;0.00;;;;;13.80;52.92;101369.56;5054659;28;45354;-52
2022/09/17 04:22:51;;;;;;;;;1.00;1.00;;;;;13.76;53.23;101360.00;5034762;28;45393;-52
2022/09/17 04:25:17;;;;;;;;;3.75;2.00;;;;;13.77;53.62;101366.38;5034075;28;45575;-52
2022/09/17 04:27:43;;;;;;;;;1.00;1.00;;;;;13.67;53.83;101361.34;5034462;28;45479;-51
2022/09/17 04:30:09;;;;;;;;;0.60;0.60;;;;;13.74;53.27;101375.09;5034335;28;45617;-54
2022/09/17 04:32:34;;;;;;;;;0.80;0.80;;;;;13.69;54.03;101379.34;5033914;28;45528;-52
2022/09/17 04:35:00;;;;;;;;;0.25;0.00;;;;;13.67;53.89;101377.88;5033897;28;45457;-52
2022/09/17 04:37:25;;;;;;;;;1.50;1.00;;;;;13.61;54.03;101379.56;5036255;28;45439;-53
2022/09/17 04:39:51;;;;;;;;;1.00;1.00;;;;;13.63;54.14;101376.59;5037932;28;45414;-52
2022/09/17 04:42:17;;;;;;;;;0.00;0.00;;;;;13.62;54.04;101378.53;5036456;28;45393;-53
2022/09/17 04:44:42;;;;;;;;;1.00;0.00;;;;;13.63;54.26;101384.88;5037734;28;45420;-52
2022/09/17 04:47:08;;;;;;;;;2.25;1.50;;;;;13.53;54.33;101369.66;5037584;28;45378;-54
2022/09/17 04:49:33;;;;;;;;;2.00;1.00;;;;;13.60;54.09;101382.56;5019728;28;45631;-50
2022/09/17 04:51:59;;;;;;;;;3.00;0.25;;;;;13.55;54.36;101380.44;5036983;28;45670;-50
2022/09/17 04:54:24;;;;;;;;;1.75;1.75;;;;;13.46;54.69;101377.09;5037326;28;45318;-52
2022/09/17 04:56:50;;;;;;;;;1.25;1.25;;;;;13.46;54.57;101379.84;5037498;28;45354;-51
2022/09/17 04:59:15;;;;;;;;;0.00;0.00;;;;;13.48;54.38;101374.09;5037317;28;45836;-52
2022/09/17 05:01:42;;;;;;;;;1.25;1.25;;;;;13.51;54.49;101384.72;5018993;28;46126;-51
2022/09/17 05:04:07;;;;;;;;;0.20;0.20;;;;;13.45;55.07;101396.56;5037243;28;45437;-52
2022/09/17 05:06:33;;;;;;;;;0.25;0.25;;;;;13.35;54.83;101384.06;5036977;28;45452;-52
2022/09/17 05:08:59;;;;;;;;;1.00;1.00;;;;;13.41;54.91;101387.88;5019717;28;45442;-53
2022/09/17 05:11:24;;;;;;;;;0.75;0.75;;;;;13.37;55.15;101389.38;5018829;28;47795;-51
2022/09/17 05:13:49;;;;;;;;;2.75;0.00;;;;;13.39;55.26;101396.38;5037373;28;45795;-52
2022/09/17 05:16:15;;;;;;;;;2.00;2.00;;;;;13.41;54.73;101391.47;5037200;28;45385;-51
2022/09/17 05:18:41;;;;;;;;;1.00;1.00;;;;;13.34;55.09;101390.63;5037168;28;45449;-52
2022/09/17 05:21:06;;;;;;;;;2.00;0.75;;;;;13.35;55.06;101389.56;5036852;28;45553;-53
2022/09/17 05:23:31;;;;;;;;;1.00;1.00;;;;;13.37;55.20;101395.75;5012111;28;45403;-52
2022/09/17 05:25:59;;;;;;;;;2.00;0.75;;;;;13.37;55.37;101397.63;4989540;28;45986;-53
2022/09/17 05:28:24;;;;;;;;;1.00;1.00;;;;;13.33;55.23;101402.72;5046016;28;45557;-53
2022/09/17 05:30:50;;;;;;;;;3.00;0.50;;;;;13.29;55.52;101407.84;5055156;28;46314;-54
2022/09/17 05:33:15;;;;;;;;;0.25;0.25;;;;;13.28;55.45;101413.53;5057013;28;45285;-53
2022/09/17 05:35:43;;;;;;;;;1.25;0.00;;;;;13.19;55.06;101398.31;5038922;28;45394;-53
2022/09/17 05:38:08;;;;;;;;;1.20;1.20;;;;;13.27;55.67;101407.22;5057354;28;45412;-49
2022/09/17 05:40:34;;;;;;;;;2.50;2.00;;;;;13.25;55.34;101405.72;5056892;28;45826;-54
2022/09/17 05:43:01;;;;;;;;;1.00;1.00;;;;;13.29;55.24;101404.25;5056411;28;45570;-53
2022/09/17 05:45:26;;;;;;;;;0.00;0.00;;;;;13.29;55.44;101409.75;5057174;28;45447;-50
2022/09/17 05:47:56;;;;;;;;;1.00;1.00;;;;;13.29;55.50;101410.59;5056270;28;45281;-51
2022/09/17 05:50:22;;;;;;;;;0.40;0.40;;;;;13.24;55.59;101410.38;5038700;28;47544;-52
2022/09/17 05:52:47;;;;;;;;;1.20;1.20;;;;;13.27;55.27;101409.09;5056630;28;45398;-53
2022/09/17 05:55:13;;;;;;;;;3.00;1.00;;;;;13.31;55.30;101401.25;5022283;28;45461;-52
2022/09/17 05:57:38;;;;;;;;;4.25;2.00;;;;;13.24;55.15;101395.75;5039029;28;45868;-54
2022/09/17 06:00:05;;;;;;;;;0.50;0.50;;;;;13.34;55.14;101415.44;5056514;28;46711;-51
2022/09/17 06:02:30;;;;;;;;;1.00;1.00;;;;;13.37;54.46;101411.41;5038468;28;46124;-53
2022/09/17 06:04:59;;;;;;;;;1.00;1.00;;;;;12.76;54.84;101316.94;5056903;28;45388;-53
2022/09/17 06:07:25;;;;;;;;;1.00;1.00;;;;;13.37;54.61;101409.53;5056914;28;45531;-52
2022/09/17 06:09:50;;;;;;;;;0.00;0.00;;;;;13.33;54.61;101413.75;5056433;28;46895;-50
2022/09/17 06:12:16;;;;;;;;;2.00;0.25;;;;;13.33;54.42;101413.75;5038424;28;45338;-52
2022/09/17 06:14:41;;;;;;;;;0.00;0.00;;;;;13.30;54.54;101416.97;5056728;28;45360;-53
2022/09/17 06:17:07;;;;;;;;;1.00;1.00;;;;;13.29;54.28;101421.63;5056854;28;45458;-53
2022/09/17 06:19:32;;;;;;;;;1.75;1.75;;;;;13.27;54.36;101417.38;5038035;28;48769;-53
2022/09/17 06:21:58;;;;;;;;;0.75;0.00;;;;;13.32;54.35;101431.38;5038124;28;45470;-52
2022/09/17 06:24:23;;;;;;;;;1.00;1.00;;;;;13.35;54.09;101432.84;5043126;28;45538;-53
2022/09/17 06:26:50;;;;;;;;;2.00;1.00;;;;;12.79;54.11;101335.78;5018453;28;46062;-50
2022/09/17 06:29:16;;;;;;;;;1.00;1.00;;;;;13.40;53.91;101435.81;5036232;28;45439;-53
2022/09/17 06:31:44;;;;;;;;;0.75;0.50;;;;;13.45;53.57;101429.66;5035774;28;45452;-51
2022/09/17 06:34:11;;;;;;;;;1.00;1.00;;;;;13.46;53.79;101434.13;5001903;28;45426;-53
2022/09/17 06:36:36;;;;;;;;;1.00;1.00;;;;;13.35;53.63;101416.31;5018252;28;45311;-52
2022/09/17 06:39:02;;;;;;;;;3.00;2.00;;;;;13.24;53.62;101404.03;5035732;28;45376;-52
2022/09/17 06:41:27;;;;;;;;;1.00;1.00;;;;;13.22;53.80;101397.84;5018096;28;45506;-52
2022/09/17 06:43:53;;;;;;;;;1.50;1.50;;;;;13.44;53.76;101444.50;5035822;28;45319;-54
2022/09/17 06:46:19;;;;;;;;;1.75;1.75;;;;;13.45;53.68;101444.28;5036234;28;45350;-50
2022/09/17 06:48:44;;;;;;;;;1.00;1.00;;;;;13.48;53.42;101448.56;5035712;28;45963;-50
2022/09/17 06:51:10;;;;;;;;;2.00;1.00;;;;;13.39;53.73;101440.47;5001450;28;45378;-49
2022/09/17 06:53:36;;;;;;;;;2.50;2.50;;;;;13.38;53.29;101438.78;5035875;28;45465;-53
2022/09/17 06:56:02;;;;;;;;;1.00;1.00;;;;;13.46;53.81;101454.31;5035905;28;45324;-54
2022/09/17 06:58:28;;;;;;;;;2.20;2.00;;;;;13.49;53.33;101453.00;5035364;28;46321;-50
2022/09/17 07:00:57;;;;;;;;;1.75;0.25;;;;;13.45;53.76;101444.28;5017670;28;45326;-53
2022/09/17 07:03:23;;;;;;;;;2.20;2.00;;;;;13.42;53.32;101434.56;5035484;28;45329;-51
2022/09/17 07:05:48;;;;;;;;;0.00;0.00;;;;;13.53;53.11;101448.75;5018297;28;45375;-52
2022/09/17 07:08:14;;;;;;;;;1.00;1.00;;;;;13.44;53.26;101450.03;5017465;28;45488;-53
2022/09/17 07:10:40;;;;;;;;;1.00;1.00;;;;;13.34;53.01;101448.53;5035237;28;45429;-54
2022/09/17 07:13:05;;;;;;;;;0.75;0.75;;;;;13.40;53.21;101449.59;4969836;28;45455;-53
2022/09/17 07:15:31;;;;;;;;;2.75;1.00;;;;;13.22;52.44;101420.78;5035804;28;45873;-54
2022/09/17 07:17:57;;;;;;;;;0.25;0.25;;;;;13.13;52.71;101411.88;5035506;28;46287;-51
2022/09/17 07:20:22;;;;;;;;;0.00;0.00;;;;;13.38;52.87;101443.44;5017035;28;45756;-53
2022/09/17 07:22:56;;;;;;;;;1.00;1.00;;;;;13.37;52.71;101453.63;5035458;28;45532;-51
2022/09/17 07:25:22;;;;;;;;;2.00;2.00;;;;;13.37;52.80;101448.13;4981305;28;45554;-51
2022/09/17 07:27:47;;;;;;;;;1.50;0.00;;;;;13.35;52.88;101433.69;4997085;28;45746;-53
2022/09/17 07:30:13;;;;;;;;;0.00;0.00;;;;;13.37;52.47;101448.13;5015119;28;45385;-51
2022/09/17 07:32:40;;;;;;;;;1.20;0.20;;;;;13.35;52.39;101446.63;5013514;28;45470;-51
2022/09/17 07:35:06;;;;;;;;;1.60;1.60;;;;;13.34;52.16;101440.25;5015420;28;45243;-51
2022/09/17 07:37:32;;;;;;;;;1.00;1.00;;;;;13.34;52.18;101440.25;5014445;28;45515;-54
2022/09/17 07:39:57;;;;;;;;;1.50;1.50;;;;;13.31;52.13;101439.84;5015105;28;45369;-52
2022/09/17 07:42:23;;;;;;;;;0.75;0.75;;;;;13.39;52.22;101443.22;5014991;28;45446;-53
2022/09/17 07:44:48;;;;;;;;;1.75;1.00;;;;;13.41;52.46;101446.63;4997489;28;45446;-53
2022/09/17 07:47:14;;;;;;;;;0.00;0.00;;;;;13.45;51.98;101451.72;5014825;28;46794;-53
2022/09/17 07:49:39;;;;;;;;;1.25;1.25;;;;;13.39;52.23;101447.88;5015072;28;46005;-54
2022/09/17 07:52:05;;;;;;;;;3.50;1.00;;;;;13.50;52.32;101455.56;5015127;28;45517;-53
2022/09/17 07:54:36;;;;;;;;;3.25;1.75;;;;;13.31;51.75;101407.63;4980673;28;45448;-53
2022/09/17 07:57:02;;;;;;;;;1.60;1.00;;;;;13.39;51.67;101426.69;5014531;28;45763;-55
2022/09/17 07:59:27;;;;;;;;;1.00;1.00;;;;;13.51;51.82;101431.59;5020686;28;45539;-54
2022/09/17 08:01:57;;;;;;;;;1.00;1.00;;;;;13.21;51.49;101380.50;5030061;28;45504;-55
2022/09/17 08:04:22;;;;;;;;;1.40;1.00;;;;;13.73;51.15;101448.75;5029019;28;45584;-51
2022/09/17 08:06:48;;;;;;;;;1.00;1.00;;;;;13.79;51.22;101455.28;5033208;28;46492;-57
2022/09/17 08:09:14;;;;;;;;;2.00;2.00;;;;;13.83;50.99;101457.41;5011687;28;45410;-55
2022/09/17 08:11:40;;;;;;;;;4.80;1.80;;;;;13.88;51.10;101445.69;5025193;28;45413;-54
2022/09/17 08:14:08;;;;;;;;;1.40;1.40;;;;;13.91;51.44;101460.97;5010580;28;45550;-56
2022/09/17 08:16:33;;;;;;;;;0.00;0.00;;;;;13.87;50.78;101449.53;4991202;28;48122;-56
2022/09/17 08:18:59;;;;;;;;;1.00;1.00;;;;;14.00;50.77;101459.69;4999877;28;45560;-54
2022/09/17 08:21:24;;;;;;;;;2.25;1.00;;;;;14.03;50.77;101463.94;4998277;28;45436;-57
2022/09/17 08:23:50;;;;;;;;;1.00;1.00;;;;;14.10;50.68;101465.59;5027798;28;45584;-56
2022/09/17 08:26:18;;;;;;;;;2.75;2.75;;;;;14.16;50.70;101465.78;5035685;28;45416;-54
2022/09/17 08:28:48;;;;;;;;;0.80;0.00;;;;;14.16;50.38;101474.94;5033816;28;45374;-51
2022/09/17 08:31:14;;;;;;;;;1.20;0.00;;;;;14.17;50.45;101467.47;5018257;28;45626;-55
2022/09/17 08:33:40;;;;;;;;;2.00;2.00;;;;;14.21;50.39;101469.56;5017079;28;45705;-51
2022/09/17 08:36:09;;;;;;;;;1.75;0.50;;;;;14.21;50.20;101466.81;5052627;28;46309;-54
2022/09/17 08:38:38;;;;;;;;;1.40;0.60;;;;;14.27;50.67;101480.81;5056256;28;45359;-54
2022/09/17 08:41:13;;;;;;;;;1.80;0.60;;;;;14.21;49.97;101477.84;5056197;28;45552;-53
2022/09/17 08:44:03;;;;;;;;;1.00;0.00;;;;;14.20;50.12;101481.69;5056009;28;45411;-54
2022/09/17 08:46:45;;;;;;;;;3.20;1.20;;;;;14.21;50.47;101491.66;5046428;28;46382;-51
2022/09/17 08:49:31;;;;;;;;;0.00;0.00;;;;;14.04;50.58;101454.59;5021187;28;46664;-53
2022/09/17 08:52:10;;;;;;;;;0.60;0.60;;;;;14.27;50.37;101486.34;5056737;28;45503;-52
2022/09/17 08:54:41;;;;;;;;;2.60;1.60;;;;;14.26;50.41;101491.03;5038906;28;45295;-53
2022/09/17 08:57:25;;;;;;;;;1.40;0.00;;;;;14.34;50.45;101503.72;5012229;28;45703;-52
2022/09/17 09:00:15;;;;;;;;;0.20;0.20;;;;;14.34;50.21;101492.69;5029847;28;45464;-49
2022/09/17 09:03:15;;;;;;;;;1.00;1.00;;;;;14.43;50.29;101501.56;5001725;28;45455;-52
2022/09/17 09:05:46;;;;;;;;;3.00;2.00;;;;;14.41;50.33;101493.50;5036417;28;45389;-54
2022/09/17 09:08:34;;;;;;;;;2.60;1.00;;;;;14.49;50.16;101497.94;5018256;28;45364;-52
2022/09/17 09:11:01;;;;;;;;;0.00;0.00;;;;;14.33;49.77;101468.91;5040566;28;45414;-55
2022/09/17 09:13:30;;;;;;;;;0.40;0.40;;;;;14.55;49.54;101496.19;5051455;28;45337;-55
2022/09/17 09:16:00;;;;;;;;;1.80;0.00;;;;;14.57;49.67;101491.31;5038439;28;45524;-57
2022/09/17 09:18:30;;;;;;;;;2.00;2.00;;;;;14.60;49.42;101485.34;5018724;28;47586;-56
2022/09/17 09:21:12;;;;;;;;;1.80;0.60;;;;;14.72;49.06;101486.34;5038275;28;45479;-54
2022/09/17 09:23:57;;;;;;;;;2.00;1.20;;;;;14.85;48.32;101498.41;5029898;28;45523;-54
2022/09/17 09:27:01;;;;;;;;;0.20;0.20;;;;;14.92;48.19;101504.72;5018806;28;45402;-53
2022/09/17 09:29:44;;;;;;;;;0.00;0.00;;;;;14.77;48.70;101486.56;5024857;28;46083;-55
2022/09/17 09:32:33;;;;;;;;;3.00;2.00;;;;;14.96;48.51;101505.13;5018315;28;45533;-56
2022/09/17 09:35:01;;;;;;;;;2.00;1.40;;;;;15.06;48.37;101499.13;4999820;28;45419;-54
2022/09/17 09:37:32;;;;;;;;;2.60;0.00;;;;;15.27;48.66;101507.03;5018052;28;45553;-54
2022/09/17 09:40:17;;;;;;;;;2.00;0.80;;;;;15.34;47.96;101495.06;5035079;28;46767;-58
2022/09/17 09:42:42;;;;;;;;;6.40;5.40;;;;;15.44;48.08;101503.72;5003580;28;45424;-56
2022/09/17 09:45:16;;;;;;;;;0.50;0.50;;;;;15.29;47.76;101471.72;5001200;28;45359;-62
2022/09/17 09:48:11;;;;;;;;;1.20;1.20;;;;;15.49;47.13;101509.41;5024601;28;45471;-52
2022/09/17 09:51:05;;;;;;;;;0.00;0.00;;;;;15.51;47.27;101475.97;5037790;28;46063;-57
2022/09/17 09:54:02;;;;;;;;;1.00;1.00;;;;;15.73;46.43;101495.78;5023006;28;46087;-54
2022/09/17 09:56:36;;;;;;;;;1.60;0.80;;;;;15.61;44.96;101467.16;5014589;28;45534;-55
2022/09/17 09:59:06;;;;;;;;;2.00;0.40;;;;;15.90;44.16;101489.66;5054223;28;45864;-53
2022/09/17 10:01:31;;;;;;;;;1.20;1.20;;;;;15.96;44.50;101494.31;5036720;28;47505;-52
2022/09/17 10:03:57;;;;;;;;;1.00;1.00;;;;;16.01;44.71;101493.63;5004328;28;45742;-56
2022/09/17 10:06:23;;;;;;;;;1.00;1.00;;;;;15.91;44.66;101483.88;5037540;28;45453;-55
2022/09/17 10:08:48;;;;;;;;;2.00;0.50;;;;;15.77;43.77;101460.19;5037584;28;45555;-57
2022/09/17 10:11:21;;;;;;;;;0.00;0.00;;;;;15.95;43.26;101496.22;5035204;28;47711;-53
2022/09/17 10:13:47;;;;;;;;;1.00;0.60;;;;;15.99;43.51;101504.91;5046218;28;45666;-52
2022/09/17 10:16:16;;;;;;;;;1.00;1.00;;;;;15.95;43.36;101487.09;5054174;28;45729;-51
2022/09/17 10:18:43;;;;;;;;;1.60;1.00;;;;;15.39;43.19;101410.34;5037314;28;45751;-50
2022/09/17 10:21:41;;;;;;;;;0.00;0.00;;;;;15.89;42.91;101504.56;5037186;28;46389;-54
2022/09/17 10:24:32;;;;;;;;;3.20;1.60;;;;;16.09;43.62;101488.63;5050192;28;45348;-53
2022/09/17 10:27:06;;;;;;;;;1.60;1.60;;;;;16.40;42.81;101496.97;5031969;28;45546;-53
2022/09/17 10:29:32;;;;;;;;;3.80;1.80;;;;;16.73;43.25;101494.81;5017679;28;45429;-54
2022/09/17 10:31:58;;;;;;;;;1.00;1.00;;;;;16.89;42.28;101502.50;5000120;28;47782;-52
2022/09/17 10:34:25;;;;;;;;;1.00;1.00;;;;;16.83;42.84;101495.13;5035973;28;45274;-53
2022/09/17 10:36:50;;;;;;;;;2.80;2.00;;;;;16.72;42.38;101490.38;5016620;28;45504;-50
2022/09/17 10:39:28;;;;;;;;;2.00;1.00;;;;;16.73;42.36;101489.28;5036221;28;45492;-56
2022/09/17 10:41:54;;;;;;;;;2.00;0.60;;;;;16.57;41.91;101465.84;5018995;28;45428;-53
2022/09/17 10:44:21;;;;;;;;;2.00;0.40;;;;;16.70;42.21;101487.81;4978103;28;45742;-55
2022/09/17 10:46:47;;;;;;;;;0.60;0.00;;;;;16.54;42.67;101478.22;5013550;28;45436;-53
2022/09/17 10:49:35;;;;;;;;;0.50;0.00;;;;;16.39;42.59;101459.28;5030532;28;45730;-58
2022/09/17 10:52:22;;;;;;;;;2.00;1.00;;;;;16.80;42.47;101478.94;5031068;28;46238;-59
2022/09/17 10:55:06;;;;;;;;;2.00;2.00;;;;;16.87;40.51;101482.44;5039765;28;45403;-58
2022/09/17 10:57:37;;;;;;;;;0.00;0.00;;;;;16.72;40.78;101473.72;5051544;28;45699;-58
2022/09/17 11:00:23;;;;;;;;;3.60;1.00;;;;;16.88;41.20;101475.00;5051806;28;45367;-50
2022/09/17 11:03:13;;;;;;;;;0.00;0.00;;;;;17.00;40.97;101475.00;5044274;28;45454;-56
2022/09/17 11:06:17;;;;;;;;;0.80;0.80;;;;;16.87;39.70;101471.38;5031219;28;45463;-58
2022/09/17 11:09:05;;;;;;;;;2.40;0.80;;;;;16.29;40.23;101389.72;5050727;28;46155;-54
2022/09/17 11:11:58;;;;;;;;;0.00;0.00;;;;;16.80;39.67;101470.63;5019414;28;45485;-57
2022/09/17 11:14:36;;;;;;;;;1.00;0.00;;;;;16.76;39.48;101414.81;5036093;28;47693;-56
2022/09/17 11:17:21;;;;;;;;;1.60;1.00;;;;;17.16;39.04;101443.00;5016761;28;45431;-58
2022/09/17 11:20:01;;;;;;;;;0.60;0.60;;;;;17.25;38.86;101422.16;5013843;28;45501;-58
2022/09/17 11:22:40;;;;;;;;;1.00;1.00;;;;;17.45;38.64;101419.00;5033537;28;45607;-52
2022/09/17 11:25:23;;;;;;;;;0.00;0.00;;;;;17.56;38.13;101452.56;5007051;28;48631;-54
2022/09/17 11:28:04;;;;;;;;;0.00;0.00;;;;;17.23;36.65;101437.34;5030381;28;45508;-55
2022/09/17 11:30:46;;;;;;;;;1.00;1.00;;;;;17.30;37.20;101438.09;4998802;28;45445;-54
2022/09/17 11:33:18;;;;;;;;;0.60;0.60;;;;;17.54;37.03;101449.16;5001622;28;45533;-56
2022/09/17 11:36:01;;;;;;;;;0.20;0.20;;;;;17.75;36.19;101443.03;5016483;28;45642;-52
2022/09/17 11:38:36;;;;;;;;;0.80;0.80;;;;;17.97;36.35;101439.59;5032735;28;45402;-54
2022/09/17 11:41:03;;;;;;;;;1.00;0.00;;;;;17.88;35.36;101421.63;4976479;28;45384;-58
2022/09/17 11:43:30;;;;;;;;;0.00;0.00;;;;;18.02;35.61;101436.06;4998442;28;45495;-55